createdAt,value
2023-04-03T00:01:14.370Z,35.56
2023-04-03T00:03:40.728Z,35.41
2023-04-03T00:06:07.255Z,35.52
2023-04-03T00:08:33.646Z,35.50
2023-04-03T00:11:00.016Z,35.41
2023-04-03T00:13:26.366Z,35.54
2023-04-03T00:15:52.681Z,35.11
2023-04-03T00:18:19.003Z,35.23
2023-04-03T00:20:45.317Z,35.29
2023-04-03T00:23:11.631Z,35.39
2023-04-03T00:25:37.999Z,35.26
2023-04-03T00:28:04.602Z,35.41
2023-04-03T00:30:30.974Z,35.23
2023-04-03T00:32:57.381Z,35.44
2023-04-03T00:35:23.778Z,35.65
2023-04-03T00:37:50.114Z,35.18
2023-04-03T00:40:16.571Z,35.16
2023-04-03T00:42:42.885Z,35.28
2023-04-03T00:45:09.212Z,35.38
2023-04-03T00:47:35.556Z,35.28
2023-04-03T00:50:01.991Z,35.26
2023-04-03T00:52:28.304Z,35.24
2023-04-03T00:54:54.620Z,35.47
2023-04-03T00:57:21.090Z,35.18
2023-04-03T00:59:47.429Z,35.03
2023-04-03T01:02:13.798Z,35.25
2023-04-03T01:04:40.269Z,35.07
2023-04-03T01:07:06.841Z,34.96
2023-04-03T01:09:33.216Z,34.92
2023-04-03T01:11:59.638Z,34.93
2023-04-03T01:14:26.030Z,35.08
2023-04-03T01:16:52.377Z,35.13
2023-04-03T01:19:18.704Z,34.92
2023-04-03T01:21:45.027Z,35.05
2023-04-03T01:24:11.338Z,35.02
2023-04-03T01:26:37.641Z,35.04
2023-04-03T01:29:04.019Z,35.07
2023-04-03T01:31:30.596Z,35.47
2023-04-03T01:33:57.007Z,35.19
2023-04-03T01:36:23.469Z,35.15
2023-04-03T01:38:49.903Z,35.20
2023-04-03T01:41:16.273Z,35.06
2023-04-03T01:43:42.628Z,35.24
2023-04-03T01:46:09.085Z,34.97
2023-04-03T01:48:35.436Z,35.18
2023-04-03T01:51:01.765Z,35.20
2023-04-03T01:53:28.137Z,35.46
2023-04-03T01:55:54.573Z,35.08
2023-04-03T01:58:20.912Z,35.08
2023-04-03T02:00:47.272Z,35.40
2023-04-03T02:03:13.660Z,34.91
2023-04-03T02:05:40.062Z,35.10
2023-04-03T02:08:06.435Z,35.16
2023-04-03T02:10:32.832Z,34.69
2023-04-03T02:12:59.206Z,35.04
2023-04-03T02:15:25.589Z,35.24
2023-04-03T02:17:51.987Z,35.18
2023-04-03T02:20:18.372Z,35.00
2023-04-03T02:22:44.739Z,35.18
2023-04-03T02:25:11.103Z,34.98
2023-04-03T02:27:37.502Z,34.96
2023-04-03T02:30:03.882Z,35.19
2023-04-03T02:32:30.453Z,35.01
2023-04-03T02:34:56.851Z,35.40
2023-04-03T02:37:23.479Z,34.98
2023-04-03T02:39:49.869Z,34.91
2023-04-03T02:42:16.462Z,35.12
2023-04-03T02:44:43.273Z,34.90
2023-04-03T02:47:09.650Z,35.15
2023-04-03T02:49:36.046Z,35.36
2023-04-03T02:52:02.372Z,35.16
2023-04-03T02:54:28.778Z,34.88
2023-04-03T02:56:55.134Z,35.45
2023-04-03T02:59:21.488Z,34.84
2023-04-03T03:01:47.882Z,34.88
2023-04-03T03:04:14.453Z,34.73
2023-04-03T03:06:40.899Z,35.10
2023-04-03T03:09:07.936Z,34.95
2023-04-03T03:11:34.259Z,34.65
2023-04-03T03:14:00.590Z,35.02
2023-04-03T03:16:27.005Z,34.73
2023-04-03T03:18:53.365Z,34.87
2023-04-03T03:21:19.687Z,34.70
2023-04-03T03:23:46.087Z,34.76
2023-04-03T03:26:12.917Z,34.68
2023-04-03T03:28:39.305Z,34.82
2023-04-03T03:31:05.728Z,34.92
2023-04-03T03:33:32.102Z,35.15
2023-04-03T03:35:58.553Z,35.10
2023-04-03T03:38:24.968Z,35.09
2023-04-03T03:40:51.349Z,34.82
2023-04-03T03:43:17.719Z,34.96
2023-04-03T03:45:44.103Z,34.72
2023-04-03T03:48:10.480Z,34.80
2023-04-03T03:50:36.823Z,34.60
2023-04-03T03:53:03.436Z,34.47
2023-04-03T03:55:29.929Z,34.92
2023-04-03T03:57:56.259Z,34.65
2023-04-03T04:00:22.740Z,34.51
2023-04-03T04:02:49.232Z,34.82
2023-04-03T04:05:16.050Z,34.67
2023-04-03T04:07:42.390Z,34.67
2023-04-03T04:10:08.688Z,34.91
2023-04-03T04:12:35.021Z,34.81
2023-04-03T04:15:01.513Z,34.78
2023-04-03T04:17:28.120Z,34.44
2023-04-03T04:19:54.560Z,34.73
2023-04-03T04:22:20.891Z,34.26
2023-04-03T04:24:47.225Z,34.62
2023-04-03T04:27:13.586Z,34.76
2023-04-03T04:29:40.081Z,34.14
2023-04-03T04:32:06.428Z,34.51
2023-04-03T04:34:33.016Z,34.42
2023-04-03T04:36:59.437Z,34.60
2023-04-03T04:39:25.812Z,34.20
2023-04-03T04:41:52.210Z,34.14
2023-04-03T04:44:18.551Z,34.73
2023-04-03T04:46:44.938Z,34.33
2023-04-03T04:49:11.319Z,34.40
2023-04-03T04:51:48.289Z,34.56
2023-04-03T04:54:17.931Z,34.33
2023-04-03T04:56:44.319Z,33.93
2023-04-03T04:59:10.690Z,34.19
2023-04-03T05:01:37.073Z,33.75
2023-04-03T05:04:03.432Z,33.93
2023-04-03T05:06:29.764Z,34.07
2023-04-03T05:08:56.224Z,33.87
2023-04-03T05:11:22.663Z,33.91
2023-04-03T05:13:51.645Z,33.74
2023-04-03T05:16:18.051Z,33.98
2023-04-03T05:18:44.369Z,33.91
2023-04-03T05:21:10.751Z,34.00
2023-04-03T05:23:37.147Z,33.80
2023-04-03T05:26:03.539Z,34.02
2023-04-03T05:28:29.887Z,33.67
2023-04-03T05:30:56.388Z,33.56
2023-04-03T05:33:22.765Z,33.69
2023-04-03T05:35:49.108Z,33.88
2023-04-03T05:38:15.736Z,33.77
2023-04-03T05:40:42.743Z,33.53
2023-04-03T05:43:09.080Z,33.66
2023-04-03T05:45:35.532Z,33.51
2023-04-03T05:48:02.003Z,33.53
2023-04-03T05:50:28.371Z,33.66
2023-04-03T05:52:54.769Z,33.56
2023-04-03T05:55:21.162Z,33.35
2023-04-03T05:57:47.478Z,33.08
2023-04-03T06:00:13.853Z,33.34
2023-04-03T06:02:40.473Z,33.21
2023-04-03T06:05:06.937Z,33.02
2023-04-03T06:07:33.305Z,33.16
2023-04-03T06:09:59.659Z,33.64
2023-04-03T06:12:26.101Z,33.12
2023-04-03T06:14:52.400Z,32.89
2023-04-03T06:17:18.911Z,33.14
2023-04-03T06:19:45.425Z,33.17
2023-04-03T06:22:11.797Z,33.38
2023-04-03T06:24:38.211Z,33.34
2023-04-03T06:27:04.551Z,33.12
2023-04-03T06:29:30.910Z,33.34
2023-04-03T06:31:57.251Z,32.93
2023-04-03T06:34:24.752Z,33.20
2023-04-03T06:36:51.071Z,33.21
2023-04-03T06:39:17.400Z,33.19
2023-04-03T06:41:43.910Z,32.75
2023-04-03T06:44:10.237Z,32.92
2023-04-03T06:46:36.694Z,32.96
2023-04-03T06:49:03.107Z,33.24
2023-04-03T06:51:29.448Z,32.95
2023-04-03T06:53:55.884Z,32.92
2023-04-03T06:56:22.274Z,32.89
2023-04-03T06:58:48.614Z,32.72
2023-04-03T07:01:15.115Z,33.01
2023-04-03T07:03:41.544Z,32.89
2023-04-03T07:06:07.885Z,32.71
2023-04-03T07:08:34.239Z,32.57
2023-04-03T07:11:00.624Z,32.76
2023-04-03T07:13:27.035Z,32.83
2023-04-03T07:15:53.505Z,32.71
2023-04-03T07:18:20.082Z,32.45
2023-04-03T07:20:46.461Z,32.41
2023-04-03T07:23:12.794Z,32.44
2023-04-03T07:25:39.478Z,32.68
2023-04-03T07:28:05.994Z,32.42
2023-04-03T07:30:32.317Z,31.88
2023-04-03T07:32:58.674Z,32.71
2023-04-03T07:35:25.118Z,32.41
2023-04-03T07:37:51.501Z,32.23
2023-04-03T07:40:19.068Z,32.38
2023-04-03T07:42:46.052Z,32.11
2023-04-03T07:45:12.412Z,32.56
2023-04-03T07:47:38.896Z,32.16
2023-04-03T07:50:05.455Z,32.01
2023-04-03T07:52:31.793Z,32.43
2023-04-03T07:54:58.112Z,32.21
2023-04-03T07:57:24.461Z,32.43
2023-04-03T07:59:50.845Z,32.31
2023-04-03T08:02:17.222Z,31.89
2023-04-03T08:04:43.740Z,31.98
2023-04-03T08:07:10.144Z,32.07
2023-04-03T08:09:36.454Z,32.19
2023-04-03T08:12:02.775Z,32.36
2023-04-03T08:14:29.131Z,32.04
2023-04-03T08:16:55.522Z,31.91
2023-04-03T08:19:26.642Z,32.05
2023-04-03T08:21:53.277Z,31.95
2023-04-03T08:24:19.605Z,31.93
2023-04-03T08:26:45.928Z,32.04
2023-04-03T08:29:12.241Z,31.89
2023-04-03T08:31:38.620Z,31.62
2023-04-03T08:34:05.283Z,31.83
2023-04-03T08:36:31.838Z,32.03
2023-04-03T08:38:58.211Z,31.79
2023-04-03T08:41:24.641Z,32.08
2023-04-03T08:43:51.188Z,31.78
2023-04-03T08:46:17.852Z,32.04
2023-04-03T08:48:44.256Z,31.88
2023-04-03T08:51:12.702Z,31.60
2023-04-03T08:53:39.280Z,31.25
2023-04-03T08:56:05.643Z,31.60
2023-04-03T08:58:31.967Z,31.55
2023-04-03T09:00:58.352Z,31.50
2023-04-03T09:03:24.835Z,31.16
2023-04-03T09:05:51.305Z,31.63
2023-04-03T09:08:17.704Z,31.27
2023-04-03T09:10:44.044Z,31.55
2023-04-03T09:13:10.422Z,31.52
2023-04-03T09:15:39.570Z,31.88
2023-04-03T09:18:06.258Z,31.42
2023-04-03T09:20:32.683Z,31.16
2023-04-03T09:22:59.449Z,31.30
2023-04-03T09:25:25.857Z,31.37
2023-04-03T09:27:52.227Z,31.13
2023-04-03T09:30:18.628Z,31.24
2023-04-03T09:32:45.054Z,30.90
2023-04-03T09:35:20.694Z,30.73
2023-04-03T09:37:49.614Z,30.58
2023-04-03T09:40:15.984Z,30.90
2023-04-03T09:42:44.177Z,30.81
2023-04-03T09:45:12.703Z,31.32
2023-04-03T09:47:39.087Z,30.55
2023-04-03T09:50:05.451Z,30.11
2023-04-03T09:52:31.802Z,30.44
2023-04-03T09:54:58.355Z,30.22
2023-04-03T09:57:24.734Z,30.77
2023-04-03T09:59:51.084Z,30.33
2023-04-03T10:02:17.477Z,30.41
2023-04-03T10:04:43.937Z,30.02
2023-04-03T10:07:10.344Z,29.84
2023-04-03T10:09:36.671Z,30.11
2023-04-03T10:12:03.112Z,30.35
2023-04-03T10:14:29.446Z,30.08
2023-04-03T10:16:56.155Z,29.84
2023-04-03T10:19:22.596Z,29.52
2023-04-03T10:21:48.963Z,29.63
2023-04-03T10:24:15.350Z,29.88
2023-04-03T10:26:41.712Z,29.70
2023-04-03T10:29:08.077Z,30.12
2023-04-03T10:31:34.443Z,30.12
2023-04-03T10:34:00.818Z,29.98
2023-04-03T10:36:27.213Z,29.69
2023-04-03T10:38:53.554Z,30.23
2023-04-03T10:41:19.886Z,30.27
2023-04-03T10:43:46.408Z,29.69
2023-04-03T10:46:12.814Z,29.86
2023-04-03T10:48:39.148Z,29.55
2023-04-03T10:51:05.699Z,29.54
2023-04-03T10:53:32.088Z,29.64
2023-04-03T10:55:58.434Z,29.38
2023-04-03T10:58:24.850Z,29.85
2023-04-03T11:00:51.250Z,29.76
2023-04-03T11:03:17.673Z,29.31
2023-04-03T11:05:44.084Z,29.39
2023-04-03T11:08:10.423Z,29.78
2023-04-03T11:10:36.845Z,29.29
2023-04-03T11:13:03.263Z,29.35
2023-04-03T11:15:29.609Z,29.72
2023-04-03T11:17:55.997Z,29.89
2023-04-03T11:20:22.605Z,29.15
2023-04-03T11:22:49.138Z,29.03
2023-04-03T11:25:15.473Z,29.08
2023-04-03T11:27:41.823Z,29.25
2023-04-03T11:30:08.268Z,29.04
2023-04-03T11:32:34.678Z,29.39
2023-04-03T11:35:01.030Z,29.23
2023-04-03T11:37:27.374Z,29.13
2023-04-03T11:39:53.761Z,29.36
2023-04-03T11:42:20.193Z,29.27
2023-04-03T11:44:46.557Z,29.25
2023-04-03T11:47:12.993Z,29.36
2023-04-03T11:49:39.306Z,29.83
2023-04-03T11:52:05.777Z,29.25
2023-04-03T11:54:35.404Z,29.38
2023-04-03T11:57:08.798Z,29.53
2023-04-03T11:59:35.308Z,29.12
2023-04-03T12:02:01.738Z,29.58
2023-04-03T12:04:28.221Z,29.54
2023-04-03T12:06:54.688Z,29.64
2023-04-03T12:09:21.086Z,29.65
2023-04-03T12:11:47.446Z,29.03
2023-04-03T12:14:13.894Z,29.37
2023-04-03T12:16:40.340Z,29.44
2023-04-03T12:19:06.775Z,29.43
2023-04-03T12:21:33.114Z,29.57
2023-04-03T12:23:59.568Z,29.35
2023-04-03T12:26:28.291Z,29.15
2023-04-03T12:28:59.160Z,29.35
2023-04-03T12:31:25.659Z,29.04
2023-04-03T12:33:52.277Z,29.20
2023-04-03T12:36:18.654Z,29.33
2023-04-03T12:38:44.990Z,29.51
2023-04-03T12:41:11.349Z,29.22
2023-04-03T12:43:37.733Z,29.27
2023-04-03T12:46:04.288Z,29.60
2023-04-03T12:48:30.791Z,28.98
2023-04-03T12:50:57.113Z,29.49
2023-04-03T12:53:23.589Z,29.51
2023-04-03T12:55:50.047Z,29.21
2023-04-03T12:58:16.422Z,29.61
2023-04-03T13:00:42.884Z,29.32
2023-04-03T13:03:09.327Z,29.25
2023-04-03T13:05:37.165Z,29.37
2023-04-03T13:08:03.822Z,29.22
2023-04-03T13:10:30.173Z,29.32
2023-04-03T13:12:56.594Z,29.64
2023-04-03T13:15:23.050Z,29.53
2023-04-03T13:17:49.591Z,29.28
2023-04-03T13:20:16.001Z,29.69
2023-04-03T13:22:42.406Z,29.22
2023-04-03T13:25:08.776Z,29.54
2023-04-03T13:27:35.387Z,29.56
2023-04-03T13:30:02.016Z,29.79
2023-04-03T13:32:28.573Z,29.77
2023-04-03T13:34:55.742Z,30.14
2023-04-03T13:37:22.382Z,29.32
2023-04-03T13:39:48.697Z,29.37
2023-04-03T13:42:15.264Z,28.94
2023-04-03T13:44:41.576Z,29.12
2023-04-03T13:47:07.967Z,28.08
2023-04-03T13:49:34.334Z,28.59
2023-04-03T13:52:07.392Z,28.78
2023-04-03T13:54:34.483Z,28.87
2023-04-03T13:57:00.880Z,28.87
2023-04-03T13:59:27.291Z,29.33
2023-04-03T14:01:53.608Z,29.34
2023-04-03T14:04:19.978Z,29.03
2023-04-03T14:06:46.395Z,29.71
2023-04-03T14:09:12.788Z,29.82
2023-04-03T14:11:39.350Z,29.93
2023-04-03T14:14:05.816Z,30.45
2023-04-03T14:16:32.253Z,30.38
2023-04-03T14:18:58.688Z,30.42
2023-04-03T14:21:25.027Z,30.58
2023-04-03T14:23:51.391Z,30.33
2023-04-03T14:26:17.730Z,30.76
2023-04-03T14:28:45.284Z,30.69
2023-04-03T14:31:11.817Z,31.03
2023-04-03T14:33:38.233Z,31.43
2023-04-03T14:36:04.618Z,31.57
2023-04-03T14:38:30.981Z,32.45
2023-04-03T14:41:01.064Z,32.04
2023-04-03T14:43:36.258Z,31.85
2023-04-03T14:46:02.835Z,32.17
2023-04-03T14:48:29.351Z,32.53
2023-04-03T14:51:05.337Z,32.15
2023-04-03T14:53:38.946Z,32.18
2023-04-03T14:56:05.660Z,32.18
2023-04-03T14:58:32.018Z,32.25
2023-04-03T15:00:58.354Z,32.20
2023-04-03T15:03:24.825Z,32.36
2023-04-03T15:05:51.304Z,32.48
2023-04-03T15:08:17.721Z,32.22
2023-04-03T15:10:44.134Z,31.91
2023-04-03T15:13:10.685Z,32.05
2023-04-03T15:15:37.326Z,32.12
2023-04-03T15:18:03.785Z,32.26
2023-04-03T15:20:30.175Z,32.21
2023-04-03T15:22:56.508Z,32.23
2023-04-03T15:25:22.862Z,31.83
2023-04-03T15:27:49.259Z,32.07
2023-04-03T15:30:15.586Z,32.19
2023-04-03T15:32:42.012Z,32.39
2023-04-03T15:35:08.444Z,32.18
2023-04-03T15:37:34.792Z,32.12
2023-04-03T15:40:01.243Z,32.44
2023-04-03T15:42:27.714Z,32.38
2023-04-03T15:44:54.071Z,32.22
2023-04-03T15:47:20.390Z,31.94
2023-04-03T15:49:46.790Z,31.96
2023-04-03T15:52:13.171Z,32.12
2023-04-03T15:54:39.549Z,32.18
2023-04-03T15:57:06.058Z,31.97
2023-04-03T15:59:32.434Z,32.03
2023-04-03T16:01:58.823Z,32.19
2023-04-03T16:04:25.265Z,32.02
2023-04-03T16:06:51.589Z,32.35
2023-04-03T16:09:18.032Z,32.55
2023-04-03T16:11:44.430Z,31.99
2023-04-03T16:14:10.886Z,32.29
2023-04-03T16:16:37.304Z,32.28
2023-04-03T16:19:03.661Z,32.33
2023-04-03T16:21:30.058Z,32.26
2023-04-03T16:23:56.546Z,32.33
2023-04-03T16:26:22.950Z,31.98
2023-04-03T16:28:49.303Z,31.96
2023-04-03T16:31:15.652Z,32.30
2023-04-03T16:33:42.007Z,31.71
2023-04-03T16:36:08.315Z,31.85
2023-04-03T16:38:34.664Z,32.42
2023-04-03T16:41:00.997Z,32.26
2023-04-03T16:43:27.377Z,32.61
2023-04-03T16:45:53.759Z,32.47
2023-04-03T16:48:20.151Z,32.31
2023-04-03T16:50:46.527Z,32.21
2023-04-03T16:53:12.890Z,32.52
2023-04-03T16:55:39.370Z,32.65
2023-04-03T16:58:05.716Z,32.45
2023-04-03T17:00:32.059Z,32.27
2023-04-03T17:02:58.473Z,32.34
2023-04-03T17:05:24.812Z,32.38
2023-04-03T17:07:51.251Z,32.34
2023-04-03T17:10:17.578Z,32.25
2023-04-03T17:12:43.973Z,32.53
2023-04-03T17:15:10.371Z,32.23
2023-04-03T17:17:36.795Z,32.11
2023-04-03T17:20:03.222Z,31.95
2023-04-03T17:22:29.568Z,32.37
2023-04-03T17:24:55.888Z,32.17
2023-04-03T17:27:22.287Z,31.98
2023-04-03T17:29:48.844Z,32.18
2023-04-03T17:32:15.346Z,32.39
2023-04-03T17:34:41.793Z,31.87
2023-04-03T17:37:08.288Z,31.77
2023-04-03T17:39:34.720Z,32.19
2023-04-03T17:42:01.122Z,32.25
2023-04-03T17:44:27.500Z,32.33
2023-04-03T17:46:53.973Z,32.30
2023-04-03T17:49:20.355Z,32.31
2023-04-03T17:51:46.688Z,32.08
2023-04-03T17:54:13.063Z,31.94
2023-04-03T17:56:39.473Z,32.14
2023-04-03T17:59:05.921Z,31.83
2023-04-03T18:01:32.437Z,32.61
2023-04-03T18:03:58.852Z,31.93
2023-04-03T18:06:25.263Z,32.37
2023-04-03T18:08:51.774Z,32.47
2023-04-03T18:11:18.373Z,32.49
2023-04-03T18:13:44.695Z,32.22
2023-04-03T18:16:11.106Z,32.27
2023-04-03T18:18:37.551Z,32.33
2023-04-03T18:21:03.943Z,32.25
2023-04-03T18:23:30.376Z,32.40
2023-04-03T18:25:56.753Z,32.39
2023-04-03T18:28:23.139Z,32.48
2023-04-03T18:30:49.531Z,32.21
2023-04-03T18:33:15.868Z,32.29
2023-04-03T18:35:42.442Z,32.28
2023-04-03T18:38:08.979Z,32.48
2023-04-03T18:40:35.491Z,32.43
2023-04-03T18:43:01.891Z,32.37
2023-04-03T18:45:28.272Z,32.53
2023-04-03T18:47:54.676Z,32.53
2023-04-03T18:50:21.306Z,32.38
2023-04-03T18:52:47.744Z,32.09
2023-04-03T18:55:14.063Z,32.15
2023-04-03T18:57:40.526Z,32.39
2023-04-03T19:00:06.878Z,32.21
2023-04-03T19:02:33.343Z,32.42
2023-04-03T19:04:59.764Z,32.40
2023-04-03T19:07:26.317Z,32.47
2023-04-03T19:09:52.791Z,32.50
2023-04-03T19:12:19.257Z,32.30
2023-04-03T19:14:45.584Z,32.39
2023-04-03T19:17:11.939Z,32.53
2023-04-03T19:19:38.274Z,32.48
2023-04-03T19:22:04.781Z,32.28
2023-04-03T19:24:31.227Z,32.25
2023-04-03T19:26:57.608Z,32.27
2023-04-03T19:29:24.020Z,32.49
2023-04-03T19:31:50.343Z,32.33
2023-04-03T19:34:16.700Z,32.24
2023-04-03T19:36:43.115Z,32.35
2023-04-03T19:39:09.539Z,32.40
2023-04-03T19:41:35.956Z,32.18
2023-04-03T19:44:02.436Z,32.47
2023-04-03T19:46:28.883Z,32.20
2023-04-03T19:48:55.381Z,32.18
2023-04-03T19:51:21.721Z,32.43
2023-04-03T19:53:48.154Z,32.32
2023-04-03T19:56:14.505Z,32.56
2023-04-03T19:58:40.894Z,32.37
2023-04-03T20:01:07.219Z,32.63
2023-04-03T20:03:33.534Z,32.30
2023-04-03T20:06:00.213Z,32.43
2023-04-03T20:08:27.648Z,32.30
2023-04-03T20:10:53.975Z,32.41
2023-04-03T20:13:20.401Z,32.59
2023-04-03T20:15:46.903Z,32.14
2023-04-03T20:18:13.279Z,32.24
2023-04-03T20:20:39.739Z,32.22
2023-04-03T20:23:06.245Z,32.39
2023-04-03T20:28:02.069Z,32.59
2023-04-03T20:30:28.391Z,32.14
2023-04-03T20:32:55.086Z,32.28
2023-04-03T20:35:21.478Z,32.17
2023-04-03T20:37:47.870Z,32.57
2023-04-03T20:40:14.220Z,32.31
2023-04-03T20:42:40.572Z,32.42
2023-04-03T20:45:08.527Z,32.53
2023-04-03T20:47:35.031Z,32.29
2023-04-03T20:50:01.472Z,32.23
2023-04-03T20:52:27.868Z,32.27
2023-04-03T20:54:54.248Z,32.25
2023-04-03T20:57:20.579Z,32.12
2023-04-03T20:59:46.895Z,32.56
2023-04-03T21:02:13.217Z,32.14
2023-04-03T21:04:39.594Z,31.97
2023-04-03T21:07:06.092Z,31.84
2023-04-03T21:09:32.538Z,31.97
2023-04-03T21:11:58.974Z,32.01
2023-04-03T21:14:25.403Z,31.85
2023-04-03T21:16:51.780Z,32.31
2023-04-03T21:19:18.146Z,32.28
2023-04-03T21:21:44.530Z,32.17
2023-04-03T21:24:10.897Z,32.08
2023-04-03T21:26:37.240Z,31.96
2023-04-03T21:29:03.572Z,32.36
2023-04-03T21:31:29.906Z,31.87
2023-04-03T21:33:56.323Z,32.02
2023-04-03T21:36:22.672Z,32.04
2023-04-03T21:38:49.486Z,32.42
2023-04-03T21:41:15.852Z,32.36
2023-04-03T21:43:42.177Z,31.81
2023-04-03T21:46:08.566Z,32.08
2023-04-03T21:48:34.964Z,31.79
2023-04-03T21:51:01.448Z,31.74
2023-04-03T21:53:27.796Z,32.05
2023-04-03T21:55:54.624Z,31.67
2023-04-03T21:58:21.008Z,31.99
2023-04-03T22:00:47.481Z,31.79
2023-04-03T22:03:13.916Z,31.80
2023-04-03T22:05:40.474Z,31.78
2023-04-03T22:08:06.845Z,31.78
2023-04-03T22:10:33.221Z,31.89
2023-04-03T22:12:59.594Z,31.61
2023-04-03T22:15:26.088Z,31.59
2023-04-03T22:17:52.457Z,31.93
2023-04-03T22:20:18.901Z,31.53
2023-04-03T22:22:45.302Z,31.91
2023-04-03T22:25:11.650Z,31.42
2023-04-03T22:27:38.294Z,31.52
2023-04-03T22:30:04.689Z,31.60
2023-04-03T22:32:31.505Z,31.59
2023-04-03T22:34:58.108Z,31.51
2023-04-03T22:37:24.492Z,31.71
2023-04-03T22:39:50.815Z,31.75
2023-04-03T22:42:17.134Z,31.97
2023-04-03T22:44:43.494Z,31.84
2023-04-03T22:47:10.998Z,31.62
2023-04-03T22:49:37.328Z,31.61
2023-04-03T22:52:03.657Z,31.62
2023-04-03T22:54:30.045Z,31.48
2023-04-03T22:56:56.445Z,31.42
2023-04-03T22:59:22.792Z,31.70
2023-04-03T23:01:49.238Z,31.85
2023-04-03T23:04:15.597Z,31.39
2023-04-03T23:06:41.970Z,31.34
2023-04-03T23:09:08.361Z,31.37
2023-04-03T23:11:34.730Z,31.65
2023-04-03T23:14:01.049Z,31.44
2023-04-03T23:16:27.403Z,31.73
2023-04-03T23:18:53.963Z,31.38
2023-04-03T23:21:20.352Z,31.43
2023-04-03T23:23:46.713Z,31.00
2023-04-03T23:26:13.070Z,30.82
2023-04-03T23:28:39.418Z,30.85
2023-04-03T23:31:05.857Z,30.78
2023-04-03T23:33:32.260Z,30.80
2023-04-03T23:35:58.869Z,30.68
2023-04-03T23:38:25.348Z,31.05
2023-04-03T23:40:51.718Z,31.05
2023-04-03T23:43:18.092Z,30.70
2023-04-03T23:45:44.509Z,30.82
2023-04-03T23:48:10.890Z,30.75
2023-04-03T23:50:37.637Z,30.71
2023-04-03T23:53:04.328Z,30.73
2023-04-03T23:55:30.729Z,30.25
2023-04-03T23:57:57.225Z,30.56
